Flinterborg — PHPH — position and weather

sailwx.info

Track history (hours):
 
Tides and Currents Weather Stations Pressure Air Temp Water Temp Dewpoint Dewpoint Depression Visibility Wind Speed Wind Dir Waves Ship Positions

Flinterborg

Last reported at 2015-Jan-20 13:24 UTC. Time now 2015-Jan-25 18:21 UTC.
Position N 54°48' E 019°39'.

Length 111 m; draft 4 m.

Type: Ship. MMSI: 245433000.

Date/timePositionNaut miles runAvg speedWind from/ knotsBaromVisibWave heightAir tempDewpointWater temp
2015-Jan-20 13:24N 54°48' E 019°39'29 1.8
2015-Jan-19 21:23N 54°42' E 020°28'17 0.5
2015-Jan-18 14:09N 54°38' E 019°60'5 8.0
2015-Jan-18 13:33N 54°39' E 019°51'1 1.3
2015-Jan-18 12:33N 54°39' E 019°49'0 0.0
2015-Jan-18 11:33N 54°39' E 019°49'0 0.0
2015-Jan-18 10:33N 54°39' E 019°49'0 0.0
2015-Jan-18 09:34N 54°39' E 019°49'0 0.0
2015-Jan-18 08:33N 54°39' E 019°49'4 3.7
2015-Jan-18 07:34N 54°42' E 019°44'1211.6
2015-Jan-18 06:33N 54°47' E 019°26'1211.6
2015-Jan-18 05:34N 54°50' E 019°07'1111.4
2015-Jan-18 04:33N 54°54' E 018°48'1111.4
2015-Jan-18 03:33N 54°56' E 018°29'1211.7
2015-Jan-18 02:33N 54°55' E 018°08'1311.6
2015-Jan-18 01:27N 54°54' E 017°46'1011.4
2015-Jan-18 00:33N 54°53' E 017°28'8611.6
2015-Jan-17 17:08N 54°39' E 015°02'2311.3
2015-Jan-17 15:07N 54°36' E 014°23'610.6
2015-Jan-17 14:33N 54°37' E 014°13'1110.8
2015-Jan-17 13:33N 54°40' E 013°55'1111.3
2015-Jan-17 12:34N 54°42' E 013°36'1110.4
2015-Jan-17 11:33N 54°44' E 013°18'1010.6
2015-Jan-17 10:33N 54°42' E 012°60'1110.9
2015-Jan-17 09:33N 54°39' E 012°42'1111.5
2015-Jan-17 08:33N 54°34' E 012°24'1212.4
2015-Jan-17 07:33N 54°25' E 012°09'1312.7
2015-Jan-17 06:33N 54°25' E 011°47'1212.0
2015-Jan-17 05:33N 54°30' E 011°28'1212.3
2015-Jan-17 04:33N 54°36' E 011°09'5 0.1
2015-Jan-15 17:33N 54°39' E 011°04'1010.4
2015-Jan-15 16:33N 54°35' E 011°20'1110.6
2015-Jan-15 15:33N 54°30' E 011°37'1010.0
2015-Jan-15 14:33N 54°28' E 011°54'9 9.4
2015-Jan-15 13:34N 54°28' E 012°10'9 9.0
2015-Jan-15 12:33N 54°34' E 012°21'1010.1
2015-Jan-15 11:33N 54°38' E 012°37'1010.3
2015-Jan-15 10:33N 54°42' E 012°54'1010.5
2015-Jan-15 09:33N 54°44' E 013°12'1211.6
2015-Jan-15 08:33N 54°46' E 013°31'1211.7
2015-Jan-15 07:33N 54°37' E 013°44'1212.3
2015-Jan-15 06:33N 54°27' E 013°56'1211.9
2015-Jan-15 05:33N 54°17' E 014°07'1111.3
2015-Jan-15 04:33N 54°06' E 014°14'1111.0
2015-Jan-15 03:34N 53°55' E 014°17'7 7.0
2015-Jan-15 02:33N 53°48' E 014°20'1211.9
2015-Jan-15 01:33N 53°39' E 014°33'1010.4
2015-Jan-15 00:33N 53°29' E 014°37'3 3.3
2015-Jan-14 23:31N 53°26' E 014°35'0 0.0
2015-Jan-14 22:31N 53°26' E 014°35'0 0.0
2015-Jan-14 21:33N 53°26' E 014°35'0 0.0
2015-Jan-14 20:33N 53°26' E 014°35'0 0.0
2015-Jan-14 19:32N 53°26' E 014°35'0 0.0
2015-Jan-14 18:32N 53°26' E 014°35'0 0.0
2015-Jan-14 17:32N 53°26' E 014°35'0 0.0
2015-Jan-14 16:31N 53°26' E 014°35'0 0.0
2015-Jan-14 15:31N 53°26' E 014°35'0 0.0
2015-Jan-14 14:33N 53°26' E 014°35'0 0.0
2015-Jan-14 13:33N 53°26' E 014°35'0 0.0
2015-Jan-14 12:32N 53°26' E 014°35'0 0.0
2015-Jan-14 11:32N 53°26' E 014°35'0 0.4
2015-Jan-14 10:34N 53°26' E 014°35'8 7.5
2015-Jan-14 09:34N 53°34' E 014°36'1010.1
2015-Jan-14 08:34N 53°43' E 014°28'1110.6
2015-Jan-14 07:34N 53°51' E 014°17'9 8.6
2015-Jan-14 06:34N 53°60' E 014°18'1212.1
2015-Jan-14 05:33N 54°10' E 014°30'4811.9
2015-Jan-14 01:32N 54°50' E 015°15'1111.6
2015-Jan-14 00:33N 54°60' E 015°25'1211.8
2015-Jan-13 23:33N 55°10' E 015°36'1412.3
2015-Jan-13 22:27N 55°21' E 015°49'  
Track history (hours):
 
Tides and Currents Weather Stations Pressure Air Temp Water Temp Dewpoint Dewpoint Depression Visibility Wind Speed Wind Dir Waves Ship Positions

Flinterborg

Last reported at 2015-Jan-20 13:24 UTC. Time now 2015-Jan-25 18:21 UTC.
Position N 54°48' E 019°39'.

Length 111 m; draft 4 m.

Type: Ship. MMSI: 245433000.

Date/timePositionNaut miles runAvg speedWind from/ knotsBaromVisibWave heightAir tempDewpointWater temp
2015-Jan-20 13:24N 54°48' E 019°39'29 1.8
2015-Jan-19 21:23N 54°42' E 020°28'17 0.5
2015-Jan-18 14:09N 54°38' E 019°60'5 8.0
2015-Jan-18 13:33N 54°39' E 019°51'1 1.3
2015-Jan-18 12:33N 54°39' E 019°49'0 0.0
2015-Jan-18 11:33N 54°39' E 019°49'0 0.0
2015-Jan-18 10:33N 54°39' E 019°49'0 0.0
2015-Jan-18 09:34N 54°39' E 019°49'0 0.0
2015-Jan-18 08:33N 54°39' E 019°49'4 3.7
2015-Jan-18 07:34N 54°42' E 019°44'1211.6
2015-Jan-18 06:33N 54°47' E 019°26'1211.6
2015-Jan-18 05:34N 54°50' E 019°07'1111.4
2015-Jan-18 04:33N 54°54' E 018°48'1111.4
2015-Jan-18 03:33N 54°56' E 018°29'1211.7
2015-Jan-18 02:33N 54°55' E 018°08'1311.6
2015-Jan-18 01:27N 54°54' E 017°46'1011.4
2015-Jan-18 00:33N 54°53' E 017°28'8611.6
2015-Jan-17 17:08N 54°39' E 015°02'2311.3
2015-Jan-17 15:07N 54°36' E 014°23'610.6
2015-Jan-17 14:33N 54°37' E 014°13'1110.8
2015-Jan-17 13:33N 54°40' E 013°55'1111.3
2015-Jan-17 12:34N 54°42' E 013°36'1110.4
2015-Jan-17 11:33N 54°44' E 013°18'1010.6
2015-Jan-17 10:33N 54°42' E 012°60'1110.9
2015-Jan-17 09:33N 54°39' E 012°42'1111.5
2015-Jan-17 08:33N 54°34' E 012°24'1212.4
2015-Jan-17 07:33N 54°25' E 012°09'1312.7
2015-Jan-17 06:33N 54°25' E 011°47'1212.0
2015-Jan-17 05:33N 54°30' E 011°28'1212.3
2015-Jan-17 04:33N 54°36' E 011°09'5 0.1
2015-Jan-15 17:33N 54°39' E 011°04'1010.4
2015-Jan-15 16:33N 54°35' E 011°20'1110.6
2015-Jan-15 15:33N 54°30' E 011°37'1010.0
2015-Jan-15 14:33N 54°28' E 011°54'9 9.4
2015-Jan-15 13:34N 54°28' E 012°10'9 9.0
2015-Jan-15 12:33N 54°34' E 012°21'1010.1
2015-Jan-15 11:33N 54°38' E 012°37'1010.3
2015-Jan-15 10:33N 54°42' E 012°54'1010.5
2015-Jan-15 09:33N 54°44' E 013°12'1211.6
2015-Jan-15 08:33N 54°46' E 013°31'1211.7
2015-Jan-15 07:33N 54°37' E 013°44'1212.3
2015-Jan-15 06:33N 54°27' E 013°56'1211.9
2015-Jan-15 05:33N 54°17' E 014°07'1111.3
2015-Jan-15 04:33N 54°06' E 014°14'1111.0
2015-Jan-15 03:34N 53°55' E 014°17'7 7.0
2015-Jan-15 02:33N 53°48' E 014°20'1211.9
2015-Jan-15 01:33N 53°39' E 014°33'1010.4
2015-Jan-15 00:33N 53°29' E 014°37'3 3.3
2015-Jan-14 23:31N 53°26' E 014°35'0 0.0
2015-Jan-14 22:31N 53°26' E 014°35'0 0.0
2015-Jan-14 21:33N 53°26' E 014°35'0 0.0
2015-Jan-14 20:33N 53°26' E 014°35'0 0.0
2015-Jan-14 19:32N 53°26' E 014°35'0 0.0
2015-Jan-14 18:32N 53°26' E 014°35'0 0.0
2015-Jan-14 17:32N 53°26' E 014°35'0 0.0
2015-Jan-14 16:31N 53°26' E 014°35'0 0.0
2015-Jan-14 15:31N 53°26' E 014°35'0 0.0
2015-Jan-14 14:33N 53°26' E 014°35'0 0.0
2015-Jan-14 13:33N 53°26' E 014°35'0 0.0
2015-Jan-14 12:32N 53°26' E 014°35'0 0.0
2015-Jan-14 11:32N 53°26' E 014°35'0 0.4
2015-Jan-14 10:34N 53°26' E 014°35'8 7.5
2015-Jan-14 09:34N 53°34' E 014°36'1010.1
2015-Jan-14 08:34N 53°43' E 014°28'1110.6
2015-Jan-14 07:34N 53°51' E 014°17'9 8.6
2015-Jan-14 06:34N 53°60' E 014°18'1212.1
2015-Jan-14 05:33N 54°10' E 014°30'4811.9
2015-Jan-14 01:32N 54°50' E 015°15'1111.6
2015-Jan-14 00:33N 54°60' E 015°25'1211.8
2015-Jan-13 23:33N 55°10' E 015°36'1412.3
2015-Jan-13 22:27N 55°21' E 015°49'  

Dump ship's entire track history